Time;durP1;ratioP1;P1;durP2;ratioP2;P2;SDS_P1;SDS_P2;PMS_P1;PMS_P2;Temp;Humidity;BMP_temperature;BMP_pressure;BME280_temperature;BME280_humidity;BME280_pressure;Samples;Min_cycle;Max_cycle;Signal;HPM_P1;HPM_P2
2022/10/18 00:02:11;;;;;;;;;;;13.00;99.90;;;;;;5104138;28;19995;-75
2022/10/18 00:04:36;;;;;;;;;;;13.00;99.90;;;;;;5092660;28;19930;-77
2022/10/18 00:07:02;;;;;;;;;;;13.10;99.90;;;;;;5074732;28;19911;-78
2022/10/18 00:09:28;;;;;;;;;;;13.10;99.90;;;;;;5097926;28;19916;-74
2022/10/18 00:11:54;;;;;;;;;;;13.00;99.90;;;;;;5094523;28;19916;-77
2022/10/18 00:14:19;;;;;;;;;;;12.90;99.90;;;;;;5102311;28;19912;-74
2022/10/18 00:16:45;;;;;;;;;;;12.80;99.90;;;;;;5082234;28;20215;-77
2022/10/18 00:19:10;;;;;;;;;;;12.70;99.90;;;;;;5079735;28;19976;-74
2022/10/18 00:21:36;;;;;;;;;;;12.60;99.90;;;;;;5068647;28;19916;-78
2022/10/18 00:24:02;;;;;;;;;;;12.60;99.90;;;;;;5095445;28;19912;-76
2022/10/18 00:26:28;;;;;;;;;;;12.50;99.90;;;;;;5061874;28;19948;-75
2022/10/18 00:28:55;;;;;;;;;;;12.40;99.90;;;;;;5090350;28;19913;-75
2022/10/18 00:31:34;;;;;;;;;;;12.50;99.90;;;;;;5096128;28;19924;-75
2022/10/18 00:34:00;;;;;;;;;;;12.50;99.90;;;;;;5097874;28;19969;-74
2022/10/18 00:36:27;;;;;;;;;;;12.50;99.90;;;;;;5090209;28;19943;-75
2022/10/18 00:38:52;;;;;;;;;;;12.40;99.90;;;;;;5088672;28;20319;-74
2022/10/18 00:41:19;;;;;;;;;;;12.50;99.90;;;;;;5096918;28;20003;-74
2022/10/18 00:43:58;;;;;;;;;;;12.50;99.90;;;;;;5082728;28;20381;-74
2022/10/18 00:46:25;;;;;;;;;;;12.40;99.90;;;;;;5083095;28;20006;-75
2022/10/18 00:48:51;;;;;;;;;;;12.40;99.90;;;;;;5084524;28;19920;-74
2022/10/18 00:51:18;;;;;;;;;;;12.50;99.90;;;;;;5089637;28;20002;-75
2022/10/18 00:53:43;;;;;;;;;;;12.50;99.90;;;;;;5094289;28;19999;-74
2022/10/18 00:56:09;;;;;;;;;;;12.50;99.90;;;;;;5093595;28;20397;-74
2022/10/18 00:58:35;;;;;;;;;;;12.40;99.90;;;;;;5097896;28;19916;-76
2022/10/18 01:01:00;;;;;;;;;;;12.30;99.90;;;;;;5098007;28;19920;-74
2022/10/18 01:03:26;;;;;;;;;;;12.30;99.90;;;;;;5073261;28;19918;-75
2022/10/18 01:05:51;;;;;;;;;;;12.30;99.90;;;;;;5076233;28;19920;-75
2022/10/18 01:08:17;;;;;;;;;;;12.20;99.90;;;;;;5088815;28;19919;-75
2022/10/18 01:10:48;;;;;;;;;;;12.20;99.90;;;;;;5088189;28;19916;-77
2022/10/18 01:13:32;;;;;;;;;;;12.20;99.90;;;;;;5092669;28;19954;-74
2022/10/18 01:16:07;;;;;;;;;;;12.20;99.90;;;;;;5096209;28;19931;-74
2022/10/18 01:18:32;;;;;;;;;;;12.20;99.90;;;;;;5092670;28;19970;-77
2022/10/18 01:21:04;;;;;;;;;;;12.10;99.90;;;;;;5073752;28;20276;-76
2022/10/18 01:23:35;;;;;;;;;;;12.10;99.90;;;;;;5094200;28;19962;-76
2022/10/18 01:26:17;;;;;;;;;;;12.00;99.90;;;;;;5087900;28;19961;-74
2022/10/18 01:28:49;;;;;;;;;;;11.90;99.90;;;;;;5094235;28;20019;-75
2022/10/18 01:31:17;;;;;;;;;;;11.80;99.90;;;;;;5087145;28;19912;-74
2022/10/18 01:33:43;;;;;;;;;;;11.80;99.90;;;;;;5093911;28;19922;-74
2022/10/18 01:36:15;;;;;;;;;;;11.90;99.90;;;;;;5095257;28;19920;-76
2022/10/18 01:38:41;;;;;;;;;;;11.80;99.90;;;;;;5071528;28;19920;-74
2022/10/18 01:41:08;;;;;;;;;;;11.80;99.90;;;;;;5068878;28;19912;-75
2022/10/18 01:43:35;;;;;;;;;;;11.80;99.90;;;;;;5093247;28;19912;-76
2022/10/18 01:46:02;;;;;;;;;;;11.60;99.90;;;;;;5095289;28;19922;-76
2022/10/18 01:48:28;;;;;;;;;;;11.40;99.90;;;;;;5070710;28;20258;-76
2022/10/18 01:50:53;;;;;;;;;;;11.40;99.90;;;;;;5094364;28;19920;-74
2022/10/18 01:53:20;;;;;;;;;;;11.30;99.90;;;;;;5092656;28;19912;-75
2022/10/18 01:55:51;;;;;;;;;;;11.40;99.90;;;;;;5094953;28;19924;-74
2022/10/18 01:58:42;;;;;;;;;;;11.40;99.90;;;;;;5095003;28;19951;-75
2022/10/18 02:01:30;;;;;;;;;;;11.30;99.90;;;;;;5087435;28;19919;-76
2022/10/18 02:03:59;;;;;;;;;;;11.30;99.90;;;;;;5094350;28;19916;-75
2022/10/18 02:06:29;;;;;;;;;;;11.20;99.90;;;;;;5092724;28;19994;-75
2022/10/18 02:09:18;;;;;;;;;;;11.30;99.90;;;;;;5076845;28;20010;-74
2022/10/18 02:11:45;;;;;;;;;;;11.20;99.90;;;;;;5078760;28;19912;-76
2022/10/18 02:14:11;;;;;;;;;;;11.10;99.90;;;;;;5088603;28;19920;-75
2022/10/18 02:16:43;;;;;;;;;;;11.10;99.90;;;;;;5088074;28;20644;-75
2022/10/18 02:19:11;;;;;;;;;;;11.10;99.90;;;;;;5093055;28;19919;-76
2022/10/18 02:21:37;;;;;;;;;;;11.20;99.90;;;;;;5096254;28;19926;-74
2022/10/18 02:24:04;;;;;;;;;;;11.20;99.90;;;;;;5079698;28;19916;-75
2022/10/18 02:26:29;;;;;;;;;;;11.20;99.90;;;;;;5092995;28;19917;-75
2022/10/18 02:28:55;;;;;;;;;;;11.20;99.90;;;;;;5085502;28;19920;-75
2022/10/18 02:31:26;;;;;;;;;;;11.30;99.90;;;;;;5095329;28;19990;-75
2022/10/18 02:33:59;;;;;;;;;;;11.30;99.90;;;;;;5071866;28;21628;-75
2022/10/18 02:36:57;;;;;;;;;;;11.30;99.90;;;;;;5078531;28;19924;-75
2022/10/18 02:39:28;;;;;;;;;;;11.30;99.90;;;;;;5014939;28;19920;-73
2022/10/18 02:41:54;;;;;;;;;;;11.30;99.90;;;;;;5031134;28;19967;-74
2022/10/18 02:44:19;;;;;;;;;;;11.20;99.90;;;;;;5031835;28;19956;-75
2022/10/18 02:46:45;;;;;;;;;;;11.20;99.90;;;;;;5031711;28;19917;-74
2022/10/18 02:49:11;;;;;;;;;;;11.20;99.90;;;;;;5032102;28;19929;-74
2022/10/18 02:51:36;;;;;;;;;;;11.20;99.90;;;;;;5029798;28;20015;-75
2022/10/18 02:54:02;;;;;;;;;;;11.20;99.90;;;;;;5029410;28;20032;-74
2022/10/18 02:56:28;;;;;;;;;;;11.20;99.90;;;;;;5030727;28;19921;-74
2022/10/18 02:58:53;;;;;;;;;;;11.20;99.90;;;;;;5031768;28;19967;-74
2022/10/18 03:01:19;;;;;;;;;;;11.20;99.90;;;;;;5030069;28;19921;-75
2022/10/18 03:03:44;;;;;;;;;;;11.20;99.90;;;;;;5029535;28;19925;-74
2022/10/18 03:06:10;;;;;;;;;;;11.30;99.90;;;;;;5031146;28;21752;-75
2022/10/18 03:08:35;;;;;;;;;;;11.30;99.90;;;;;;5014514;28;19914;-75
2022/10/18 03:11:01;;;;;;;;;;;11.20;99.90;;;;;;5029510;28;19940;-75
2022/10/18 03:13:27;;;;;;;;;;;11.20;99.90;;;;;;5024416;28;19921;-75
2022/10/18 03:15:52;;;;;;;;;;;11.20;99.90;;;;;;5064540;28;20008;-74
2022/10/18 03:18:18;;;;;;;;;;;11.20;99.90;;;;;;5064916;28;19912;-74
2022/10/18 03:20:43;;;;;;;;;;;11.30;99.90;;;;;;5060794;28;19924;-74
2022/10/18 03:23:09;;;;;;;;;;;11.40;99.90;;;;;;5073071;28;19920;-74
2022/10/18 03:25:34;;;;;;;;;;;11.40;99.90;;;;;;5068073;28;19916;-74
2022/10/18 03:28:00;;;;;;;;;;;11.40;99.90;;;;;;5066781;28;19925;-75
2022/10/18 03:30:25;;;;;;;;;;;11.40;99.90;;;;;;5077889;28;19912;-75
2022/10/18 03:32:53;;;;;;;;;;;11.40;99.90;;;;;;5080865;28;20011;-74
2022/10/18 03:35:18;;;;;;;;;;;11.30;99.90;;;;;;5089312;28;19912;-75
2022/10/18 03:37:44;;;;;;;;;;;11.30;99.90;;;;;;5085978;28;20019;-75
2022/10/18 03:40:09;;;;;;;;;;;11.30;99.90;;;;;;5089845;28;20534;-75
2022/10/18 03:42:35;;;;;;;;;;;11.30;99.90;;;;;;5094406;28;20311;-75
2022/10/18 03:45:00;;;;;;;;;;;11.30;99.90;;;;;;5068561;28;19967;-74
2022/10/18 03:47:26;;;;;;;;;;;11.40;99.90;;;;;;5095509;28;19927;-74
2022/10/18 03:49:51;;;;;;;;;;;11.50;99.90;;;;;;5068073;28;19912;-74
2022/10/18 03:52:17;;;;;;;;;;;11.50;99.90;;;;;;5076561;28;19937;-75
2022/10/18 03:54:42;;;;;;;;;;;11.50;99.90;;;;;;5071502;28;20207;-75
2022/10/18 03:57:08;;;;;;;;;;;11.60;99.90;;;;;;5100608;28;19920;-75
2022/10/18 03:59:34;;;;;;;;;;;11.60;99.90;;;;;;5081830;28;19912;-74
2022/10/18 04:01:59;;;;;;;;;;;11.60;99.90;;;;;;5098141;28;20323;-74
2022/10/18 04:04:25;;;;;;;;;;;11.60;99.90;;;;;;5076314;28;19923;-75
2022/10/18 04:06:50;;;;;;;;;;;11.60;99.90;;;;;;5100507;28;20319;-74
2022/10/18 04:09:16;;;;;;;;;;;11.60;99.90;;;;;;5073898;28;19912;-75
2022/10/18 04:11:54;;;;;;;;;;;11.60;99.90;;;;;;5087341;28;19999;-75
2022/10/18 04:14:22;;;;;;;;;;;11.60;99.90;;;;;;5091109;28;19913;-75
2022/10/18 04:16:47;;;;;;;;;;;11.60;99.90;;;;;;5096234;28;20226;-74
2022/10/18 04:19:13;;;;;;;;;;;11.60;99.90;;;;;;5098345;28;19912;-75
2022/10/18 04:21:39;;;;;;;;;;;11.50;99.90;;;;;;5076378;28;19958;-74
2022/10/18 04:24:04;;;;;;;;;;;11.50;99.90;;;;;;5094836;28;19912;-75
2022/10/18 04:26:30;;;;;;;;;;;11.40;99.90;;;;;;5104440;28;20345;-75
2022/10/18 04:28:56;;;;;;;;;;;11.40;99.90;;;;;;5108499;28;19988;-75
2022/10/18 04:31:21;;;;;;;;;;;11.40;99.90;;;;;;5100423;28;19912;-75
2022/10/18 04:33:47;;;;;;;;;;;11.40;99.90;;;;;;5091659;28;20200;-75
2022/10/18 04:36:12;;;;;;;;;;;11.40;99.90;;;;;;5112148;28;20211;-75
2022/10/18 04:38:38;;;;;;;;;;;11.40;99.90;;;;;;5090578;28;19916;-75
2022/10/18 04:41:03;;;;;;;;;;;11.30;99.90;;;;;;5106016;28;19979;-75
2022/10/18 04:43:29;;;;;;;;;;;11.30;99.90;;;;;;5079189;28;19955;-74
2022/10/18 04:45:54;;;;;;;;;;;11.30;99.90;;;;;;5084780;28;19916;-74
2022/10/18 04:48:20;;;;;;;;;;;11.30;99.90;;;;;;5108216;28;19924;-74
2022/10/18 04:50:49;;;;;;;;;;;11.30;99.90;;;;;;5097204;28;19919;-75
2022/10/18 04:53:16;;;;;;;;;;;11.30;99.90;;;;;;5090216;28;19912;-75
2022/10/18 04:55:45;;;;;;;;;;;11.30;99.90;;;;;;5106337;28;19961;-75
2022/10/18 04:58:11;;;;;;;;;;;11.30;99.90;;;;;;5107264;28;19920;-75
2022/10/18 05:00:37;;;;;;;;;;;11.30;99.90;;;;;;5109886;28;19960;-75
2022/10/18 05:03:02;;;;;;;;;;;11.20;99.90;;;;;;5107494;28;20227;-75
2022/10/18 05:05:28;;;;;;;;;;;11.30;99.90;;;;;;5110602;28;19912;-75
2022/10/18 05:07:53;;;;;;;;;;;11.20;99.90;;;;;;5083210;28;20299;-75
2022/10/18 05:10:19;;;;;;;;;;;11.10;99.90;;;;;;5092524;28;20268;-75
2022/10/18 05:12:44;;;;;;;;;;;11.10;99.90;;;;;;5082700;28;19916;-75
2022/10/18 05:15:10;;;;;;;;;;;11.10;99.90;;;;;;5085834;28;19920;-75
2022/10/18 05:17:36;;;;;;;;;;;11.00;99.90;;;;;;5091506;28;20362;-75
2022/10/18 05:20:02;;;;;;;;;;;11.00;99.90;;;;;;5072062;28;19923;-75
2022/10/18 05:22:27;;;;;;;;;;;10.90;99.90;;;;;;5093313;28;19920;-75
2022/10/18 05:24:53;;;;;;;;;;;10.90;99.90;;;;;;5093444;28;19918;-75
2022/10/18 05:27:18;;;;;;;;;;;10.90;99.90;;;;;;5088428;28;19955;-75
2022/10/18 05:29:44;;;;;;;;;;;10.90;99.90;;;;;;5077686;28;19919;-75
2022/10/18 05:32:10;;;;;;;;;;;10.90;99.90;;;;;;5086560;28;19923;-75
2022/10/18 05:34:36;;;;;;;;;;;10.80;99.90;;;;;;5098382;28;20003;-75
2022/10/18 05:37:01;;;;;;;;;;;10.80;99.90;;;;;;5075190;28;19930;-75
2022/10/18 05:39:27;;;;;;;;;;;10.70;99.90;;;;;;5068955;28;20300;-75
2022/10/18 05:41:52;;;;;;;;;;;10.70;99.90;;;;;;5072482;28;19918;-75
2022/10/18 05:44:18;;;;;;;;;;;10.70;99.90;;;;;;5094451;28;19947;-76
2022/10/18 05:46:53;;;;;;;;;;;10.70;99.90;;;;;;5073127;28;20003;-75
2022/10/18 05:49:18;;;;;;;;;;;10.60;99.90;;;;;;5091001;28;20392;-75
2022/10/18 05:51:44;;;;;;;;;;;10.60;99.90;;;;;;5091946;28;19924;-75
2022/10/18 05:54:13;;;;;;;;;;;10.60;99.90;;;;;;5074804;28;19962;-75
2022/10/18 05:56:38;;;;;;;;;;;10.60;99.90;;;;;;5098377;28;19924;-75
2022/10/18 05:59:08;;;;;;;;;;;10.50;99.90;;;;;;5106806;28;20226;-75
2022/10/18 06:01:34;;;;;;;;;;;10.50;99.90;;;;;;5103385;28;20206;-76
2022/10/18 06:04:00;;;;;;;;;;;10.40;99.90;;;;;;5102577;28;19915;-75
2022/10/18 06:06:25;;;;;;;;;;;10.30;99.90;;;;;;5100226;28;20311;-75
2022/10/18 06:08:51;;;;;;;;;;;10.30;99.90;;;;;;5110001;28;19954;-75
2022/10/18 06:11:17;;;;;;;;;;;10.20;99.90;;;;;;5094846;28;20298;-75
2022/10/18 06:13:44;;;;;;;;;;;10.10;99.90;;;;;;5091788;28;19920;-75
2022/10/18 06:16:11;;;;;;;;;;;10.10;99.90;;;;;;5089675;28;19963;-75
2022/10/18 06:18:36;;;;;;;;;;;10.10;99.90;;;;;;5105856;28;20314;-75
2022/10/18 06:21:02;;;;;;;;;;;10.00;99.90;;;;;;5107566;28;19918;-75
2022/10/18 06:23:27;;;;;;;;;;;10.00;99.90;;;;;;5106744;28;20229;-75
2022/10/18 06:25:56;;;;;;;;;;;10.00;99.90;;;;;;5091075;28;19922;-75
2022/10/18 06:28:22;;;;;;;;;;;9.90;99.90;;;;;;5092201;28;20302;-74
2022/10/18 06:30:47;;;;;;;;;;;9.90;99.90;;;;;;5097492;28;20011;-74
2022/10/18 06:33:24;;;;;;;;;;;9.80;99.90;;;;;;5086687;28;19967;-75
2022/10/18 06:36:25;;;;;;;;;;;9.80;99.90;;;;;;5088601;28;19943;-75
2022/10/18 06:38:52;;;;;;;;;;;9.80;99.90;;;;;;5106295;28;19923;-75
2022/10/18 06:41:19;;;;;;;;;;;9.80;99.90;;;;;;5100782;28;20233;-75
2022/10/18 06:43:52;;;;;;;;;;;9.80;99.90;;;;;;5074492;28;19993;-75
2022/10/18 06:46:18;;;;;;;;;;;9.80;99.90;;;;;;5092579;28;19924;-75
2022/10/18 06:48:45;;;;;;;;;;;9.80;99.90;;;;;;5096592;28;19919;-75
2022/10/18 06:51:10;;;;;;;;;;;9.80;99.90;;;;;;5091321;28;19927;-75
2022/10/18 06:53:37;;;;;;;;;;;9.80;99.90;;;;;;5078765;28;20299;-75
2022/10/18 06:56:04;;;;;;;;;;;9.70;99.90;;;;;;5084248;28;19920;-75
2022/10/18 06:58:34;;;;;;;;;;;9.80;99.90;;;;;;5094915;28;20421;-75
2022/10/18 07:01:34;;;;;;;;;;;9.80;99.90;;;;;;5098272;28;19918;-75
2022/10/18 07:04:02;;;;;;;;;;;9.80;99.90;;;;;;5083791;28;19920;-75
2022/10/18 07:06:28;;;;;;;;;;;9.80;99.90;;;;;;5087228;28;19912;-75
2022/10/18 07:08:55;;;;;;;;;;;9.90;99.90;;;;;;5095554;28;19954;-75
2022/10/18 07:11:25;;;;;;;;;;;9.90;99.90;;;;;;5080590;28;19962;-75
2022/10/18 07:13:53;;;;;;;;;;;9.90;99.90;;;;;;5065527;28;19923;-75
2022/10/18 07:16:21;;;;;;;;;;;10.10;99.90;;;;;;5070077;28;19924;-75
2022/10/18 07:18:48;;;;;;;;;;;10.20;99.90;;;;;;5089849;28;19939;-75
2022/10/18 07:21:15;;;;;;;;;;;10.40;99.90;;;;;;5068310;28;20263;-74
2022/10/18 07:23:42;;;;;;;;;;;10.60;99.90;;;;;;5088281;28;19920;-75
2022/10/18 07:26:31;;;;;;;;;;;10.80;99.90;;;;;;5084311;28;19916;-75
2022/10/18 07:29:00;;;;;;;;;;;10.90;99.90;;;;;;5052432;28;19930;-75
2022/10/18 07:31:26;;;;;;;;;;;11.20;99.90;;;;;;5078424;28;20011;-75
2022/10/18 07:33:52;;;;;;;;;;;11.30;99.90;;;;;;5099127;28;20054;-75
2022/10/18 07:36:18;;;;;;;;;;;11.40;99.90;;;;;;5105031;28;19927;-74
2022/10/18 07:38:43;;;;;;;;;;;11.60;99.90;;;;;;5064531;28;19927;-75
2022/10/18 07:41:11;;;;;;;;;;;11.70;99.90;;;;;;5084335;28;20266;-75
2022/10/18 07:44:07;;;;;;;;;;;11.70;99.90;;;;;;5102880;28;19933;-75
2022/10/18 07:46:34;;;;;;;;;;;11.80;99.90;;;;;;5065361;28;19912;-74
2022/10/18 07:49:20;;;;;;;;;;;11.90;99.90;;;;;;5086024;28;19918;-74
2022/10/18 07:51:53;;;;;;;;;;;11.90;99.90;;;;;;5077264;28;19912;-74
2022/10/18 07:54:42;;;;;;;;;;;12.00;99.90;;;;;;5084880;28;20026;-75
2022/10/18 07:57:08;;;;;;;;;;;12.10;99.90;;;;;;5091879;28;20208;-74
2022/10/18 07:59:34;;;;;;;;;;;12.20;99.90;;;;;;5082816;28;19916;-75
2022/10/18 08:02:00;;;;;;;;;;;12.30;99.90;;;;;;5091543;28;19922;-74
2022/10/18 08:04:25;;;;;;;;;;;12.40;99.90;;;;;;5089131;28;19951;-75
2022/10/18 08:06:55;;;;;;;;;;;12.50;99.90;;;;;;5068899;28;20326;-75
2022/10/18 08:09:23;;;;;;;;;;;12.60;99.90;;;;;;5093214;28;19920;-75
2022/10/18 08:11:49;;;;;;;;;;;12.70;99.90;;;;;;5102501;28;21748;-75
2022/10/18 08:14:16;;;;;;;;;;;12.80;99.90;;;;;;5107759;28;19959;-75
2022/10/18 08:16:41;;;;;;;;;;;13.00;99.90;;;;;;5056066;28;20019;-75
2022/10/18 08:19:07;;;;;;;;;;;13.10;99.90;;;;;;5073436;28;20374;-75
2022/10/18 08:21:33;;;;;;;;;;;13.20;99.90;;;;;;5101458;28;19912;-75
2022/10/18 08:23:59;;;;;;;;;;;13.40;99.90;;;;;;5103597;28;20023;-75
2022/10/18 08:26:24;;;;;;;;;;;13.50;99.90;;;;;;5099340;28;19916;-74
2022/10/18 08:28:50;;;;;;;;;;;13.70;99.90;;;;;;5099694;28;19927;-74
2022/10/18 08:31:17;;;;;;;;;;;13.80;99.90;;;;;;5074803;28;19945;-74
2022/10/18 08:33:43;;;;;;;;;;;13.90;99.90;;;;;;5099935;28;19927;-76
2022/10/18 08:36:10;;;;;;;;;;;14.00;99.90;;;;;;5097535;28;19932;-74
2022/10/18 08:38:37;;;;;;;;;;;14.10;99.90;;;;;;5087457;28;20023;-76
2022/10/18 08:41:21;;;;;;;;;;;14.20;99.90;;;;;;5094565;28;20366;-77
2022/10/18 08:43:54;;;;;;;;;;;14.50;99.90;;;;;;5077107;28;19980;-74
2022/10/18 08:46:20;;;;;;;;;;;14.90;99.90;;;;;;5079904;28;19961;-74
2022/10/18 08:48:50;;;;;;;;;;;15.60;99.90;;;;;;5076909;28;20269;-75
2022/10/18 08:51:36;;;;;;;;;;;16.10;99.90;;;;;;5110239;28;20320;-74
2022/10/18 08:54:21;;;;;;;;;;;16.30;99.90;;;;;;5100934;28;19924;-74
2022/10/18 08:56:53;;;;;;;;;;;16.50;99.90;;;;;;5101772;28;19952;-74
2022/10/18 08:59:18;;;;;;;;;;;16.60;99.90;;;;;;5103313;28;19912;-75
2022/10/18 09:01:55;;;;;;;;;;;16.90;99.90;;;;;;5085253;28;19994;-75
2022/10/18 09:04:40;;;;;;;;;;;17.60;99.90;;;;;;5088519;28;20429;-74
2022/10/18 09:07:05;;;;;;;;;;;18.40;99.90;;;;;;5103474;28;19927;-74
2022/10/18 09:09:49;;;;;;;;;;;19.00;99.90;;;;;;5107614;28;19916;-74
2022/10/18 09:12:30;;;;;;;;;;;19.00;99.90;;;;;;5109091;28;20006;-75
2022/10/18 09:14:56;;;;;;;;;;;18.70;99.90;;;;;;5071790;28;19919;-75
2022/10/18 09:17:40;;;;;;;;;;;18.40;99.90;;;;;;5109434;28;20295;-75
2022/10/18 09:20:12;;;;;;;;;;;18.20;99.90;;;;;;5098208;28;20032;-74
2022/10/18 09:22:52;;;;;;;;;;;18.00;99.90;;;;;;5097200;28;19912;-74
2022/10/18 09:25:20;;;;;;;;;;;18.00;99.90;;;;;;5098309;28;19955;-74
2022/10/18 09:28:00;;;;;;;;;;;18.40;99.90;;;;;;5081154;28;19955;-74
2022/10/18 09:30:31;;;;;;;;;;;18.80;99.90;;;;;;5085683;28;19920;-74
2022/10/18 09:33:06;;;;;;;;;;;19.20;99.90;;;;;;5087101;28;19924;-74
2022/10/18 09:35:43;;;;;;;;;;;19.40;99.90;;;;;;5091821;28;19920;-75
2022/10/18 09:38:11;;;;;;;;;;;19.50;99.90;;;;;;5072611;28;19920;-75
2022/10/18 09:40:57;;;;;;;;;;;19.70;99.90;;;;;;5073586;28;19920;-74
2022/10/18 09:43:44;;;;;;;;;;;19.90;99.90;;;;;;5086189;28;19951;-74
2022/10/18 09:46:10;;;;;;;;;;;20.00;99.90;;;;;;5071752;28;19916;-74
2022/10/18 09:48:51;;;;;;;;;;;19.90;99.90;;;;;;5097111;28;19912;-74
2022/10/18 09:51:24;;;;;;;;;;;19.90;99.90;;;;;;5071456;28;19912;-75
2022/10/18 09:54:18;;;;;;;;;;;20.00;99.90;;;;;;5068076;28;19916;-75
2022/10/18 09:56:47;;;;;;;;;;;19.50;99.90;;;;;;5086496;28;20035;-75
2022/10/18 09:59:31;;;;;;;;;;;19.10;99.90;;;;;;5087395;28;19951;-75
2022/10/18 10:02:01;;;;;;;;;;;18.70;99.90;;;;;;5070898;28;19959;-76
2022/10/18 10:04:28;;;;;;;;;;;18.30;99.90;;;;;;5091733;28;19920;-75
2022/10/18 10:06:55;;;;;;;;;;;18.10;99.90;;;;;;5084659;28;19919;-76
2022/10/18 10:09:39;;;;;;;;;;;17.80;99.90;;;;;;5078643;28;20011;-75
2022/10/18 10:12:21;;;;;;;;;;;17.60;99.90;;;;;;5060879;28;19917;-75
2022/10/18 10:14:47;;;;;;;;;;;17.40;99.90;;;;;;5079996;28;19912;-74
2022/10/18 10:17:25;;;;;;;;;;;17.30;99.90;;;;;;5078451;28;19949;-75
2022/10/18 10:20:12;;;;;;;;;;;17.30;99.90;;;;;;5078805;28;19971;-74
2022/10/18 10:22:39;;;;;;;;;;;17.20;99.90;;;;;;5089848;28;19920;-76
2022/10/18 10:25:07;;;;;;;;;;;17.20;99.90;;;;;;5091680;28;19973;-73
2022/10/18 10:27:42;;;;;;;;;;;17.20;99.90;;;;;;5075216;28;20311;-74
2022/10/18 10:30:20;;;;;;;;;;;17.20;99.90;;;;;;5090851;28;19912;-74
2022/10/18 10:32:47;;;;;;;;;;;17.10;99.90;;;;;;5096636;28;19955;-74
2022/10/18 10:35:39;;;;;;;;;;;17.20;99.90;;;;;;5093474;28;19912;-74
2022/10/18 10:38:05;;;;;;;;;;;17.20;99.90;;;;;;5079650;28;20288;-77
2022/10/18 10:40:33;;;;;;;;;;;17.20;99.90;;;;;;5095074;28;19970;-76
2022/10/18 10:43:02;;;;;;;;;;;17.20;99.90;;;;;;5083681;28;19978;-74
2022/10/18 10:45:40;;;;;;;;;;;17.10;99.90;;;;;;5098722;28;19916;-75
2022/10/18 10:48:10;;;;;;;;;;;17.20;99.90;;;;;;5105298;28;19912;-73
2022/10/18 10:50:48;;;;;;;;;;;17.20;99.90;;;;;;5102853;28;19920;-78
2022/10/18 10:53:32;;;;;;;;;;;17.20;99.90;;;;;;5085760;28;19920;-74
2022/10/18 10:56:00;;;;;;;;;;;17.10;99.90;;;;;;5103925;28;19912;-77
2022/10/18 10:58:28;;;;;;;;;;;17.10;99.90;;;;;;5093847;28;20007;-74
2022/10/18 11:00:56;;;;;;;;;;;17.10;99.90;;;;;;5080272;28;19927;-72
2022/10/18 11:03:22;;;;;;;;;;;17.10;99.90;;;;;;5083366;28;19920;-75
2022/10/18 11:05:59;;;;;;;;;;;16.90;99.90;;;;;;5081963;28;19921;-73
2022/10/18 11:08:37;;;;;;;;;;;17.00;99.90;;;;;;5090940;28;20310;-75
2022/10/18 11:11:17;;;;;;;;;;;17.10;99.90;;;;;;5094727;28;19920;-74
2022/10/18 11:14:09;;;;;;;;;;;17.10;99.90;;;;;;5069818;28;20196;-75
2022/10/18 11:16:36;;;;;;;;;;;17.20;99.90;;;;;;5090972;28;19920;-73
2022/10/18 11:19:04;;;;;;;;;;;17.30;99.90;;;;;;5089114;28;19924;-74
2022/10/18 11:21:30;;;;;;;;;;;17.40;99.90;;;;;;5094522;28;19916;-75
2022/10/18 11:23:56;;;;;;;;;;;17.40;99.90;;;;;;5108992;28;19951;-77
2022/10/18 11:26:31;;;;;;;;;;;17.60;99.90;;;;;;5086833;28;19916;-78
2022/10/18 11:28:56;;;;;;;;;;;17.60;99.90;;;;;;5099243;28;19964;-74
2022/10/18 11:31:34;;;;;;;;;;;17.60;99.90;;;;;;5103902;28;19915;-77
2022/10/18 11:34:18;;;;;;;;;;;17.60;99.90;;;;;;5059836;28;19928;-73
2022/10/18 11:37:02;;;;;;;;;;;17.70;99.90;;;;;;5082864;28;20003;-73
2022/10/18 11:39:43;;;;;;;;;;;17.80;99.90;;;;;;5075434;28;19920;-73
2022/10/18 11:42:18;;;;;;;;;;;17.90;99.90;;;;;;5095383;28;19952;-77
2022/10/18 11:44:50;;;;;;;;;;;18.00;99.90;;;;;;5094102;28;19959;-74
2022/10/18 11:47:20;;;;;;;;;;;18.10;99.90;;;;;;5073663;28;20307;-79
2022/10/18 11:50:04;;;;;;;;;;;18.30;99.90;;;;;;5071769;28;20223;-75
2022/10/18 11:52:44;;;;;;;;;;;18.30;99.90;;;;;;5099796;28;20076;-76
2022/10/18 11:55:10;;;;;;;;;;;18.40;99.90;;;;;;5086914;28;19912;-75
2022/10/18 11:57:35;;;;;;;;;;;18.40;99.90;;;;;;5098063;28;20226;-73
2022/10/18 12:00:16;;;;;;;;;;;18.40;99.90;;;;;;5089251;28;20247;-75
2022/10/18 12:02:41;;;;;;;;;;;18.40;99.90;;;;;;5098385;28;19916;-77
2022/10/18 12:05:08;;;;;;;;;;;18.40;99.90;;;;;;5091513;28;20318;-78
2022/10/18 12:07:36;;;;;;;;;;;18.40;99.90;;;;;;5110057;28;19946;-74
2022/10/18 12:10:05;;;;;;;;;;;18.40;99.90;;;;;;5108364;28;19952;-74
2022/10/18 12:12:33;;;;;;;;;;;18.60;99.90;;;;;;5067314;28;20003;-75
2022/10/18 12:15:04;;;;;;;;;;;18.70;99.90;;;;;;5095952;28;19916;-75
2022/10/18 12:17:29;;;;;;;;;;;18.70;99.90;;;;;;5100754;28;19917;-79
2022/10/18 12:19:58;;;;;;;;;;;18.90;99.90;;;;;;5086792;28;19916;-75
2022/10/18 12:22:43;;;;;;;;;;;19.00;99.90;;;;;;5072010;28;19969;-73
2022/10/18 12:25:12;;;;;;;;;;;19.20;99.90;;;;;;5082374;28;19918;-74
2022/10/18 12:27:59;;;;;;;;;;;19.30;99.90;;;;;;5099572;28;19912;-76
2022/10/18 12:30:43;;;;;;;;;;;19.50;99.90;;;;;;5068376;28;19913;-74
2022/10/18 12:33:11;;;;;;;;;;;19.60;99.90;;;;;;5094299;28;19923;-75
2022/10/18 12:36:03;;;;;;;;;;;19.70;99.90;;;;;;5087362;28;20002;-74
2022/10/18 12:38:30;;;;;;;;;;;19.70;99.90;;;;;;5053711;28;19927;-74
2022/10/18 12:40:57;;;;;;;;;;;19.50;99.90;;;;;;5094823;28;19912;-75
2022/10/18 12:43:24;;;;;;;;;;;19.50;99.90;;;;;;5074136;28;20003;-78
2022/10/18 12:45:52;;;;;;;;;;;19.50;99.90;;;;;;5090033;28;19923;-74
2022/10/18 12:48:28;;;;;;;;;;;19.60;99.90;;;;;;5075495;28;19912;-74
2022/10/18 12:51:14;;;;;;;;;;;19.50;99.90;;;;;;5105891;28;20011;-73
2022/10/18 12:53:41;;;;;;;;;;;19.40;99.90;;;;;;5081999;28;19955;-73
2022/10/18 12:56:25;;;;;;;;;;;19.00;99.90;;;;;;5100670;28;19912;-74
2022/10/18 12:58:50;;;;;;;;;;;18.80;99.90;;;;;;5098322;28;19919;-73
2022/10/18 13:01:16;;;;;;;;;;;18.60;99.90;;;;;;5096252;28;20295;-73
2022/10/18 13:03:55;;;;;;;;;;;18.40;99.90;;;;;;5099617;28;20195;-73
2022/10/18 13:06:20;;;;;;;;;;;18.20;99.90;;;;;;5087996;28;20019;-73
2022/10/18 13:08:47;;;;;;;;;;;18.20;99.90;;;;;;5086586;28;20122;-76
2022/10/18 13:11:34;;;;;;;;;;;18.10;99.90;;;;;;5086159;28;19919;-73
2022/10/18 13:14:06;;;;;;;;;;;18.10;99.90;;;;;;5088610;28;20212;-73
2022/10/18 13:16:35;;;;;;;;;;;18.00;99.90;;;;;;5092359;28;19974;-74
2022/10/18 13:19:02;;;;;;;;;;;17.90;99.90;;;;;;5075336;28;20223;-73
2022/10/18 13:21:46;;;;;;;;;;;18.00;99.90;;;;;;5065242;28;20035;-73
2022/10/18 13:24:31;;;;;;;;;;;17.90;99.90;;;;;;5091368;28;19995;-73
2022/10/18 13:27:23;;;;;;;;;;;17.80;99.90;;;;;;5086420;28;19968;-73
2022/10/18 13:29:49;;;;;;;;;;;17.70;99.90;;;;;;5102882;28;19965;-76
2022/10/18 13:32:33;;;;;;;;;;;17.50;99.90;;;;;;5095415;28;19924;-73
2022/10/18 13:34:59;;;;;;;;;;;17.20;99.90;;;;;;5084751;28;19924;-73
2022/10/18 13:37:24;;;;;;;;;;;17.20;99.90;;;;;;5102730;28;19926;-73
2022/10/18 13:40:10;;;;;;;;;;;17.10;99.90;;;;;;5108837;28;20337;-73
2022/10/18 13:42:35;;;;;;;;;;;17.20;99.90;;;;;;5103872;28;19916;-73
2022/10/18 13:45:24;;;;;;;;;;;17.20;99.90;;;;;;5086479;28;19920;-73
2022/10/18 13:47:50;;;;;;;;;;;17.10;99.90;;;;;;5060606;28;19927;-73
2022/10/18 13:50:18;;;;;;;;;;;17.10;99.90;;;;;;5102540;28;20315;-73
2022/10/18 13:53:08;;;;;;;;;;;17.10;99.90;;;;;;5098627;28;19919;-72
2022/10/18 13:55:51;;;;;;;;;;;17.00;99.90;;;;;;5089312;28;19912;-74
2022/10/18 13:58:42;;;;;;;;;;;17.00;99.90;;;;;;5055556;28;19986;-73
2022/10/18 14:01:17;;;;;;;;;;;16.90;99.90;;;;;;5086946;28;19916;-75
2022/10/18 14:03:51;;;;;;;;;;;16.90;99.90;;;;;;5092523;28;20219;-74
2022/10/18 14:06:21;;;;;;;;;;;16.90;99.90;;;;;;5090843;28;19912;-73
2022/10/18 14:08:52;;;;;;;;;;;16.80;99.90;;;;;;5097079;28;19923;-73
2022/10/18 14:11:33;;;;;;;;;;;16.70;99.90;;;;;;5075597;28;19920;-76
2022/10/18 14:14:17;;;;;;;;;;;16.60;99.90;;;;;;5097107;28;20050;-76
2022/10/18 14:17:11;;;;;;;;;;;16.50;99.90;;;;;;5091819;28;20357;-76
2022/10/18 14:19:55;;;;;;;;;;;16.40;99.90;;;;;;5068114;28;19920;-77
2022/10/18 14:22:23;;;;;;;;;;;16.30;99.90;;;;;;5099109;28;19916;-75
2022/10/18 14:24:50;;;;;;;;;;;16.20;99.90;;;;;;5079696;28;19951;-77
2022/10/18 14:27:16;;;;;;;;;;;16.20;99.90;;;;;;5087215;28;19912;-76
2022/10/18 14:29:41;;;;;;;;;;;16.10;99.90;;;;;;5084421;28;19955;-73
2022/10/18 14:32:17;;;;;;;;;;;16.10;99.90;;;;;;5087644;28;19916;-76
2022/10/18 14:34:43;;;;;;;;;;;16.00;99.90;;;;;;5087362;28;19912;-73
2022/10/18 14:37:25;;;;;;;;;;;16.00;99.90;;;;;;5086895;28;20003;-77
2022/10/18 14:39:50;;;;;;;;;;;16.00;99.90;;;;;;5081141;28;19916;-76